sensor_id;sensor_type;location;lat;lon;timestamp;P1;durP1;ratioP1;P2;durP2;ratioP2
20114;SDS011;10218;42.874;25.320;2024-02-21T00:00:56;59.90;;;33.97;;
20114;SDS011;10218;42.874;25.320;2024-02-21T00:03:23;62.27;;;34.27;;
20114;SDS011;10218;42.874;25.320;2024-02-21T00:05:50;61.80;;;34.30;;
20114;SDS011;10218;42.874;25.320;2024-02-21T00:08:17;62.73;;;34.60;;
20114;SDS011;10218;42.874;25.320;2024-02-21T00:10:45;62.80;;;33.73;;
20114;SDS011;10218;42.874;25.320;2024-02-21T00:13:12;60.37;;;33.50;;
20114;SDS011;10218;42.874;25.320;2024-02-21T00:15:39;57.20;;;31.70;;
20114;SDS011;10218;42.874;25.320;2024-02-21T00:18:06;58.03;;;32.47;;
20114;SDS011;10218;42.874;25.320;2024-02-21T00:20:33;59.73;;;33.03;;
20114;SDS011;10218;42.874;25.320;2024-02-21T00:23:00;60.10;;;33.63;;
20114;SDS011;10218;42.874;25.320;2024-02-21T00:25:28;60.07;;;33.97;;
20114;SDS011;10218;42.874;25.320;2024-02-21T00:27:55;64.53;;;36.10;;
20114;SDS011;10218;42.874;25.320;2024-02-21T00:30:22;63.43;;;33.80;;
20114;SDS011;10218;42.874;25.320;2024-02-21T00:32:49;59.90;;;32.93;;
20114;SDS011;10218;42.874;25.320;2024-02-21T00:35:16;57.70;;;32.90;;
20114;SDS011;10218;42.874;25.320;2024-02-21T00:37:43;61.03;;;32.57;;
20114;SDS011;10218;42.874;25.320;2024-02-21T00:40:10;63.60;;;34.10;;
20114;SDS011;10218;42.874;25.320;2024-02-21T00:42:38;59.37;;;31.63;;
20114;SDS011;10218;42.874;25.320;2024-02-21T00:45:05;61.43;;;34.13;;
20114;SDS011;10218;42.874;25.320;2024-02-21T00:47:33;56.10;;;30.97;;
20114;SDS011;10218;42.874;25.320;2024-02-21T00:50:00;57.37;;;32.80;;
20114;SDS011;10218;42.874;25.320;2024-02-21T00:52:27;61.93;;;34.50;;
20114;SDS011;10218;42.874;25.320;2024-02-21T00:54:55;63.03;;;35.43;;
20114;SDS011;10218;42.874;25.320;2024-02-21T00:57:22;60.53;;;33.73;;
20114;SDS011;10218;42.874;25.320;2024-02-21T00:59:50;60.87;;;35.23;;
20114;SDS011;10218;42.874;25.320;2024-02-21T01:02:17;66.07;;;37.27;;
20114;SDS011;10218;42.874;25.320;2024-02-21T01:04:44;59.60;;;36.33;;
20114;SDS011;10218;42.874;25.320;2024-02-21T01:07:11;61.87;;;34.87;;
20114;SDS011;10218;42.874;25.320;2024-02-21T01:09:39;58.53;;;32.23;;
20114;SDS011;10218;42.874;25.320;2024-02-21T01:12:06;63.60;;;36.43;;
20114;SDS011;10218;42.874;25.320;2024-02-21T01:14:33;65.73;;;36.33;;
20114;SDS011;10218;42.874;25.320;2024-02-21T01:17:00;66.57;;;37.73;;
20114;SDS011;10218;42.874;25.320;2024-02-21T01:19:28;65.77;;;35.97;;
20114;SDS011;10218;42.874;25.320;2024-02-21T01:21:55;62.97;;;35.53;;
20114;SDS011;10218;42.874;25.320;2024-02-21T01:24:22;62.53;;;34.40;;
20114;SDS011;10218;42.874;25.320;2024-02-21T01:26:49;68.93;;;35.33;;
20114;SDS011;10218;42.874;25.320;2024-02-21T01:29:16;66.77;;;34.63;;
20114;SDS011;10218;42.874;25.320;2024-02-21T01:31:44;66.70;;;36.03;;
20114;SDS011;10218;42.874;25.320;2024-02-21T01:34:11;67.60;;;37.47;;
20114;SDS011;10218;42.874;25.320;2024-02-21T01:36:38;62.77;;;36.40;;
20114;SDS011;10218;42.874;25.320;2024-02-21T01:39:05;63.63;;;36.20;;
20114;SDS011;10218;42.874;25.320;2024-02-21T01:41:32;64.40;;;37.40;;
20114;SDS011;10218;42.874;25.320;2024-02-21T01:43:59;68.27;;;38.23;;
20114;SDS011;10218;42.874;25.320;2024-02-21T01:46:26;66.67;;;37.40;;
20114;SDS011;10218;42.874;25.320;2024-02-21T01:48:55;68.20;;;36.93;;
20114;SDS011;10218;42.874;25.320;2024-02-21T01:51:24;64.27;;;36.83;;
20114;SDS011;10218;42.874;25.320;2024-02-21T01:53:52;67.47;;;36.70;;
20114;SDS011;10218;42.874;25.320;2024-02-21T01:56:20;63.20;;;35.43;;
20114;SDS011;10218;42.874;25.320;2024-02-21T01:58:48;64.73;;;35.33;;
20114;SDS011;10218;42.874;25.320;2024-02-21T02:01:16;60.67;;;34.20;;
20114;SDS011;10218;42.874;25.320;2024-02-21T02:03:45;66.23;;;36.07;;
20114;SDS011;10218;42.874;25.320;2024-02-21T02:06:13;62.63;;;34.43;;
20114;SDS011;10218;42.874;25.320;2024-02-21T02:08:41;64.37;;;34.17;;
20114;SDS011;10218;42.874;25.320;2024-02-21T02:11:09;61.60;;;35.30;;
20114;SDS011;10218;42.874;25.320;2024-02-21T02:13:37;64.53;;;35.63;;
20114;SDS011;10218;42.874;25.320;2024-02-21T02:16:04;63.83;;;35.13;;
20114;SDS011;10218;42.874;25.320;2024-02-21T02:18:32;59.60;;;34.20;;
20114;SDS011;10218;42.874;25.320;2024-02-21T02:20:59;62.17;;;34.60;;
20114;SDS011;10218;42.874;25.320;2024-02-21T02:23:29;62.13;;;34.00;;
20114;SDS011;10218;42.874;25.320;2024-02-21T02:26:00;62.53;;;34.07;;
20114;SDS011;10218;42.874;25.320;2024-02-21T02:28:28;63.20;;;34.53;;
20114;SDS011;10218;42.874;25.320;2024-02-21T02:30:55;63.50;;;34.13;;
20114;SDS011;10218;42.874;25.320;2024-02-21T02:33:22;62.53;;;34.30;;
20114;SDS011;10218;42.874;25.320;2024-02-21T02:35:49;61.83;;;33.53;;
20114;SDS011;10218;42.874;25.320;2024-02-21T02:38:17;61.70;;;34.50;;
20114;SDS011;10218;42.874;25.320;2024-02-21T02:40:44;62.80;;;34.50;;
20114;SDS011;10218;42.874;25.320;2024-02-21T02:43:11;66.80;;;35.23;;
20114;SDS011;10218;42.874;25.320;2024-02-21T02:45:38;58.70;;;33.00;;
20114;SDS011;10218;42.874;25.320;2024-02-21T02:48:05;65.27;;;33.87;;
20114;SDS011;10218;42.874;25.320;2024-02-21T02:50:33;60.87;;;33.07;;
20114;SDS011;10218;42.874;25.320;2024-02-21T02:53:00;65.30;;;34.50;;
20114;SDS011;10218;42.874;25.320;2024-02-21T02:55:27;68.63;;;36.40;;
20114;SDS011;10218;42.874;25.320;2024-02-21T02:57:54;61.03;;;35.10;;
20114;SDS011;10218;42.874;25.320;2024-02-21T03:00:22;62.17;;;35.50;;
20114;SDS011;10218;42.874;25.320;2024-02-21T03:02:50;61.50;;;35.00;;
20114;SDS011;10218;42.874;25.320;2024-02-21T03:05:17;59.90;;;33.17;;
20114;SDS011;10218;42.874;25.320;2024-02-21T03:07:46;62.67;;;33.63;;
20114;SDS011;10218;42.874;25.320;2024-02-21T03:10:14;63.17;;;35.90;;
20114;SDS011;10218;42.874;25.320;2024-02-21T03:12:43;61.07;;;34.67;;
20114;SDS011;10218;42.874;25.320;2024-02-21T03:15:10;70.90;;;36.80;;
20114;SDS011;10218;42.874;25.320;2024-02-21T03:17:37;70.20;;;37.90;;
20114;SDS011;10218;42.874;25.320;2024-02-21T03:20:05;72.27;;;39.13;;
20114;SDS011;10218;42.874;25.320;2024-02-21T03:22:36;71.40;;;37.87;;
20114;SDS011;10218;42.874;25.320;2024-02-21T03:25:04;68.07;;;36.90;;
20114;SDS011;10218;42.874;25.320;2024-02-21T03:27:33;63.67;;;35.40;;
20114;SDS011;10218;42.874;25.320;2024-02-21T03:30:00;69.30;;;35.30;;
20114;SDS011;10218;42.874;25.320;2024-02-21T03:32:27;68.57;;;34.97;;
20114;SDS011;10218;42.874;25.320;2024-02-21T03:34:55;65.17;;;34.77;;
20114;SDS011;10218;42.874;25.320;2024-02-21T03:37:22;68.53;;;35.27;;
20114;SDS011;10218;42.874;25.320;2024-02-21T03:39:50;61.00;;;34.00;;
20114;SDS011;10218;42.874;25.320;2024-02-21T03:42:17;62.57;;;34.17;;
20114;SDS011;10218;42.874;25.320;2024-02-21T03:44:44;65.60;;;35.30;;
20114;SDS011;10218;42.874;25.320;2024-02-21T03:47:11;65.77;;;34.43;;
20114;SDS011;10218;42.874;25.320;2024-02-21T03:49:38;63.33;;;33.97;;
20114;SDS011;10218;42.874;25.320;2024-02-21T03:52:05;66.47;;;35.80;;
20114;SDS011;10218;42.874;25.320;2024-02-21T03:54:33;67.70;;;35.90;;
20114;SDS011;10218;42.874;25.320;2024-02-21T03:57:00;68.37;;;35.73;;
20114;SDS011;10218;42.874;25.320;2024-02-21T03:59:27;62.57;;;35.50;;
20114;SDS011;10218;42.874;25.320;2024-02-21T04:01:54;66.87;;;33.90;;
20114;SDS011;10218;42.874;25.320;2024-02-21T04:04:22;66.60;;;33.93;;
20114;SDS011;10218;42.874;25.320;2024-02-21T04:06:50;67.13;;;34.43;;
20114;SDS011;10218;42.874;25.320;2024-02-21T04:09:17;65.10;;;34.80;;
20114;SDS011;10218;42.874;25.320;2024-02-21T04:11:45;65.57;;;35.07;;
20114;SDS011;10218;42.874;25.320;2024-02-21T04:14:12;68.07;;;35.33;;
20114;SDS011;10218;42.874;25.320;2024-02-21T04:16:39;68.27;;;35.23;;
20114;SDS011;10218;42.874;25.320;2024-02-21T04:19:07;65.93;;;35.33;;
20114;SDS011;10218;42.874;25.320;2024-02-21T04:21:34;63.67;;;33.47;;
20114;SDS011;10218;42.874;25.320;2024-02-21T04:24:01;65.27;;;34.30;;
20114;SDS011;10218;42.874;25.320;2024-02-21T04:26:32;61.93;;;32.63;;
20114;SDS011;10218;42.874;25.320;2024-02-21T04:28:59;62.93;;;33.70;;
20114;SDS011;10218;42.874;25.320;2024-02-21T04:31:26;64.67;;;34.33;;
20114;SDS011;10218;42.874;25.320;2024-02-21T04:33:54;64.33;;;33.70;;
20114;SDS011;10218;42.874;25.320;2024-02-21T04:36:21;62.57;;;33.93;;
20114;SDS011;10218;42.874;25.320;2024-02-21T04:38:48;59.93;;;33.07;;
20114;SDS011;10218;42.874;25.320;2024-02-21T04:41:15;68.03;;;35.73;;
20114;SDS011;10218;42.874;25.320;2024-02-21T04:43:42;62.93;;;33.40;;
20114;SDS011;10218;42.874;25.320;2024-02-21T04:46:09;68.17;;;34.47;;
20114;SDS011;10218;42.874;25.320;2024-02-21T04:48:37;69.00;;;34.03;;
20114;SDS011;10218;42.874;25.320;2024-02-21T04:51:04;61.40;;;33.50;;
20114;SDS011;10218;42.874;25.320;2024-02-21T04:53:31;64.77;;;33.80;;
20114;SDS011;10218;42.874;25.320;2024-02-21T04:55:58;71.50;;;34.10;;
20114;SDS011;10218;42.874;25.320;2024-02-21T04:58:26;61.63;;;32.90;;
20114;SDS011;10218;42.874;25.320;2024-02-21T05:00:53;63.40;;;33.03;;
20114;SDS011;10218;42.874;25.320;2024-02-21T05:03:21;67.20;;;34.93;;
20114;SDS011;10218;42.874;25.320;2024-02-21T05:05:48;64.87;;;34.33;;
20114;SDS011;10218;42.874;25.320;2024-02-21T05:08:15;61.50;;;34.10;;
20114;SDS011;10218;42.874;25.320;2024-02-21T05:10:43;58.23;;;32.13;;
20114;SDS011;10218;42.874;25.320;2024-02-21T05:13:10;66.27;;;35.83;;
20114;SDS011;10218;42.874;25.320;2024-02-21T05:15:37;68.47;;;34.57;;
20114;SDS011;10218;42.874;25.320;2024-02-21T05:18:04;68.20;;;35.77;;
20114;SDS011;10218;42.874;25.320;2024-02-21T05:20:31;67.03;;;34.33;;
20114;SDS011;10218;42.874;25.320;2024-02-21T05:22:58;64.93;;;35.67;;
20114;SDS011;10218;42.874;25.320;2024-02-21T05:25:26;59.33;;;33.47;;
20114;SDS011;10218;42.874;25.320;2024-02-21T05:27:53;59.77;;;30.73;;
20114;SDS011;10218;42.874;25.320;2024-02-21T05:30:20;59.80;;;32.33;;
20114;SDS011;10218;42.874;25.320;2024-02-21T05:32:47;61.60;;;31.93;;
20114;SDS011;10218;42.874;25.320;2024-02-21T05:35:14;59.17;;;31.47;;
20114;SDS011;10218;42.874;25.320;2024-02-21T05:37:41;60.90;;;32.57;;
20114;SDS011;10218;42.874;25.320;2024-02-21T05:40:09;58.83;;;33.63;;
20114;SDS011;10218;42.874;25.320;2024-02-21T05:42:39;61.33;;;35.07;;
20114;SDS011;10218;42.874;25.320;2024-02-21T05:45:06;65.53;;;35.87;;
20114;SDS011;10218;42.874;25.320;2024-02-21T05:47:34;65.83;;;36.20;;
20114;SDS011;10218;42.874;25.320;2024-02-21T05:50:01;66.33;;;36.30;;
20114;SDS011;10218;42.874;25.320;2024-02-21T05:52:28;65.93;;;37.03;;
20114;SDS011;10218;42.874;25.320;2024-02-21T05:54:55;65.83;;;37.30;;
20114;SDS011;10218;42.874;25.320;2024-02-21T05:57:22;61.20;;;35.93;;
20114;SDS011;10218;42.874;25.320;2024-02-21T05:59:49;67.80;;;37.03;;
20114;SDS011;10218;42.874;25.320;2024-02-21T06:02:17;57.13;;;33.53;;
20114;SDS011;10218;42.874;25.320;2024-02-21T06:04:44;47.67;;;26.43;;
20114;SDS011;10218;42.874;25.320;2024-02-21T06:07:13;41.03;;;23.53;;
20114;SDS011;10218;42.874;25.320;2024-02-21T06:09:40;43.80;;;23.03;;
20114;SDS011;10218;42.874;25.320;2024-02-21T06:12:07;43.47;;;24.63;;
20114;SDS011;10218;42.874;25.320;2024-02-21T06:14:34;44.83;;;25.67;;
20114;SDS011;10218;42.874;25.320;2024-02-21T06:17:01;43.63;;;22.27;;
20114;SDS011;10218;42.874;25.320;2024-02-21T06:19:29;41.43;;;22.83;;
20114;SDS011;10218;42.874;25.320;2024-02-21T06:21:56;46.90;;;24.37;;
20114;SDS011;10218;42.874;25.320;2024-02-21T06:24:23;46.97;;;25.30;;
20114;SDS011;10218;42.874;25.320;2024-02-21T06:26:50;45.87;;;25.50;;
20114;SDS011;10218;42.874;25.320;2024-02-21T06:29:18;41.90;;;22.93;;
20114;SDS011;10218;42.874;25.320;2024-02-21T06:31:45;47.53;;;26.00;;
20114;SDS011;10218;42.874;25.320;2024-02-21T06:34:12;47.97;;;26.00;;
20114;SDS011;10218;42.874;25.320;2024-02-21T06:36:39;43.50;;;25.43;;
20114;SDS011;10218;42.874;25.320;2024-02-21T06:39:06;40.50;;;24.23;;
20114;SDS011;10218;42.874;25.320;2024-02-21T06:41:34;49.63;;;25.10;;
20114;SDS011;10218;42.874;25.320;2024-02-21T06:44:01;50.33;;;27.10;;
20114;SDS011;10218;42.874;25.320;2024-02-21T06:46:29;51.17;;;28.47;;
20114;SDS011;10218;42.874;25.320;2024-02-21T06:48:58;52.03;;;29.20;;
20114;SDS011;10218;42.874;25.320;2024-02-21T06:51:26;68.20;;;36.37;;
20114;SDS011;10218;42.874;25.320;2024-02-21T06:53:54;61.03;;;34.63;;
20114;SDS011;10218;42.874;25.320;2024-02-21T06:56:25;71.40;;;36.33;;
20114;SDS011;10218;42.874;25.320;2024-02-21T06:58:55;69.83;;;36.77;;
20114;SDS011;10218;42.874;25.320;2024-02-21T07:01:26;67.80;;;36.80;;
20114;SDS011;10218;42.874;25.320;2024-02-21T07:03:53;71.80;;;38.13;;
20114;SDS011;10218;42.874;25.320;2024-02-21T07:06:20;72.90;;;38.10;;
20114;SDS011;10218;42.874;25.320;2024-02-21T07:08:47;73.80;;;39.37;;
20114;SDS011;10218;42.874;25.320;2024-02-21T07:11:15;92.63;;;42.47;;
20114;SDS011;10218;42.874;25.320;2024-02-21T07:13:42;75.37;;;38.80;;
20114;SDS011;10218;42.874;25.320;2024-02-21T07:16:09;70.53;;;40.03;;
20114;SDS011;10218;42.874;25.320;2024-02-21T07:18:36;68.57;;;39.33;;
20114;SDS011;10218;42.874;25.320;2024-02-21T07:21:03;67.83;;;37.23;;
20114;SDS011;10218;42.874;25.320;2024-02-21T07:23:30;59.37;;;33.83;;
20114;SDS011;10218;42.874;25.320;2024-02-21T07:25:58;60.97;;;35.43;;
20114;SDS011;10218;42.874;25.320;2024-02-21T07:28:25;44.57;;;25.80;;
20114;SDS011;10218;42.874;25.320;2024-02-21T07:30:52;39.77;;;25.50;;
20114;SDS011;10218;42.874;25.320;2024-02-21T07:33:19;41.23;;;24.37;;
20114;SDS011;10218;42.874;25.320;2024-02-21T07:35:46;39.87;;;24.73;;
20114;SDS011;10218;42.874;25.320;2024-02-21T07:38:13;38.47;;;23.80;;
20114;SDS011;10218;42.874;25.320;2024-02-21T07:40:40;39.73;;;22.10;;
20114;SDS011;10218;42.874;25.320;2024-02-21T07:43:07;37.83;;;24.33;;
20114;SDS011;10218;42.874;25.320;2024-02-21T07:45:35;37.90;;;24.27;;
20114;SDS011;10218;42.874;25.320;2024-02-21T07:48:02;37.10;;;24.37;;
20114;SDS011;10218;42.874;25.320;2024-02-21T07:50:29;32.17;;;20.57;;
20114;SDS011;10218;42.874;25.320;2024-02-21T07:52:57;33.97;;;21.37;;
20114;SDS011;10218;42.874;25.320;2024-02-21T07:55:24;31.47;;;21.50;;
20114;SDS011;10218;42.874;25.320;2024-02-21T07:57:51;39.80;;;24.30;;
20114;SDS011;10218;42.874;25.320;2024-02-21T08:00:18;43.87;;;26.17;;
20114;SDS011;10218;42.874;25.320;2024-02-21T08:02:49;35.47;;;23.40;;
20114;SDS011;10218;42.874;25.320;2024-02-21T08:05:16;35.80;;;24.20;;
20114;SDS011;10218;42.874;25.320;2024-02-21T08:07:43;29.47;;;19.30;;
20114;SDS011;10218;42.874;25.320;2024-02-21T08:10:11;29.30;;;18.60;;
20114;SDS011;10218;42.874;25.320;2024-02-21T08:12:38;30.23;;;21.47;;
20114;SDS011;10218;42.874;25.320;2024-02-21T08:15:05;30.90;;;19.70;;
20114;SDS011;10218;42.874;25.320;2024-02-21T08:17:35;26.13;;;17.23;;
20114;SDS011;10218;42.874;25.320;2024-02-21T08:20:02;26.83;;;17.80;;
20114;SDS011;10218;42.874;25.320;2024-02-21T08:22:31;30.93;;;18.53;;
20114;SDS011;10218;42.874;25.320;2024-02-21T08:24:58;25.73;;;17.33;;
20114;SDS011;10218;42.874;25.320;2024-02-21T08:27:26;27.67;;;16.93;;
20114;SDS011;10218;42.874;25.320;2024-02-21T08:29:53;28.33;;;18.10;;
20114;SDS011;10218;42.874;25.320;2024-02-21T08:32:20;24.50;;;15.77;;
20114;SDS011;10218;42.874;25.320;2024-02-21T08:34:47;22.93;;;16.50;;
20114;SDS011;10218;42.874;25.320;2024-02-21T08:37:14;17.33;;;13.17;;
20114;SDS011;10218;42.874;25.320;2024-02-21T08:39:42;19.07;;;13.13;;
20114;SDS011;10218;42.874;25.320;2024-02-21T08:42:09;19.50;;;13.17;;
20114;SDS011;10218;42.874;25.320;2024-02-21T08:44:36;16.50;;;12.57;;
20114;SDS011;10218;42.874;25.320;2024-02-21T08:47:06;16.17;;;11.50;;
20114;SDS011;10218;42.874;25.320;2024-02-21T08:49:35;17.97;;;12.67;;
20114;SDS011;10218;42.874;25.320;2024-02-21T08:52:04;21.47;;;13.90;;
20114;SDS011;10218;42.874;25.320;2024-02-21T08:54:32;16.90;;;12.40;;
20114;SDS011;10218;42.874;25.320;2024-02-21T08:57:00;17.83;;;11.73;;
20114;SDS011;10218;42.874;25.320;2024-02-21T08:59:27;15.60;;;10.87;;
20114;SDS011;10218;42.874;25.320;2024-02-21T09:01:55;14.77;;;10.43;;
20114;SDS011;10218;42.874;25.320;2024-02-21T09:04:22;12.63;;;10.00;;
20114;SDS011;10218;42.874;25.320;2024-02-21T09:06:49;11.60;;;8.93;;
20114;SDS011;10218;42.874;25.320;2024-02-21T09:09:16;12.23;;;9.43;;
20114;SDS011;10218;42.874;25.320;2024-02-21T09:11:43;13.27;;;8.53;;
20114;SDS011;10218;42.874;25.320;2024-02-21T09:14:10;11.10;;;8.10;;
20114;SDS011;10218;42.874;25.320;2024-02-21T09:16:38;14.67;;;9.27;;
20114;SDS011;10218;42.874;25.320;2024-02-21T09:19:06;12.53;;;9.87;;
20114;SDS011;10218;42.874;25.320;2024-02-21T09:21:33;14.83;;;9.20;;
20114;SDS011;10218;42.874;25.320;2024-02-21T09:24:00;14.80;;;9.33;;
20114;SDS011;10218;42.874;25.320;2024-02-21T09:26:31;12.37;;;9.50;;
20114;SDS011;10218;42.874;25.320;2024-02-21T09:28:58;12.33;;;9.87;;
20114;SDS011;10218;42.874;25.320;2024-02-21T09:31:25;11.03;;;9.20;;
20114;SDS011;10218;42.874;25.320;2024-02-21T09:33:52;18.20;;;10.57;;
20114;SDS011;10218;42.874;25.320;2024-02-21T09:36:19;13.93;;;10.60;;
20114;SDS011;10218;42.874;25.320;2024-02-21T09:38:48;17.93;;;11.20;;
20114;SDS011;10218;42.874;25.320;2024-02-21T09:41:18;14.03;;;10.83;;
20114;SDS011;10218;42.874;25.320;2024-02-21T09:43:52;14.23;;;10.07;;
20114;SDS011;10218;42.874;25.320;2024-02-21T09:46:24;70.30;;;38.97;;
20114;SDS011;10218;42.874;25.320;2024-02-21T09:51:51;21.93;;;16.67;;
20114;SDS011;10218;42.874;25.320;2024-02-21T09:54:20;14.67;;;10.77;;
20114;SDS011;10218;42.874;25.320;2024-02-21T09:56:48;22.67;;;15.33;;
20114;SDS011;10218;42.874;25.320;2024-02-21T09:59:16;16.97;;;11.93;;
20114;SDS011;10218;42.874;25.320;2024-02-21T10:01:43;16.43;;;11.17;;
20114;SDS011;10218;42.874;25.320;2024-02-21T10:04:11;16.40;;;11.17;;
20114;SDS011;10218;42.874;25.320;2024-02-21T10:06:38;15.67;;;10.77;;
20114;SDS011;10218;42.874;25.320;2024-02-21T10:09:06;18.50;;;10.33;;
20114;SDS011;10218;42.874;25.320;2024-02-21T10:11:33;15.47;;;11.33;;
20114;SDS011;10218;42.874;25.320;2024-02-21T10:14:04;15.27;;;10.37;;
20114;SDS011;10218;42.874;25.320;2024-02-21T10:16:35;12.83;;;8.90;;
20114;SDS011;10218;42.874;25.320;2024-02-21T10:19:03;14.10;;;9.47;;
20114;SDS011;10218;42.874;25.320;2024-02-21T10:21:30;33.20;;;22.00;;
20114;SDS011;10218;42.874;25.320;2024-02-21T10:23:58;12.40;;;9.53;;
20114;SDS011;10218;42.874;25.320;2024-02-21T10:26:25;12.07;;;8.50;;
20114;SDS011;10218;42.874;25.320;2024-02-21T10:28:52;20.43;;;9.90;;
20114;SDS011;10218;42.874;25.320;2024-02-21T10:31:22;14.50;;;10.53;;
20114;SDS011;10218;42.874;25.320;2024-02-21T10:34:02;16.87;;;10.80;;
20114;SDS011;10218;42.874;25.320;2024-02-21T10:36:32;12.60;;;9.67;;
20114;SDS011;10218;42.874;25.320;2024-02-21T10:38:59;15.07;;;9.93;;
20114;SDS011;10218;42.874;25.320;2024-02-21T10:41:26;16.90;;;11.50;;
20114;SDS011;10218;42.874;25.320;2024-02-21T10:43:56;18.77;;;9.97;;
20114;SDS011;10218;42.874;25.320;2024-02-21T10:46:25;13.83;;;9.97;;
20114;SDS011;10218;42.874;25.320;2024-02-21T10:49:05;12.77;;;9.60;;
20114;SDS011;10218;42.874;25.320;2024-02-21T10:51:37;13.87;;;8.97;;
20114;SDS011;10218;42.874;25.320;2024-02-21T10:57:14;13.70;;;9.70;;
20114;SDS011;10218;42.874;25.320;2024-02-21T10:59:44;19.27;;;10.57;;
20114;SDS011;10218;42.874;25.320;2024-02-21T11:02:12;13.90;;;8.87;;
20114;SDS011;10218;42.874;25.320;2024-02-21T11:04:39;11.67;;;7.90;;
20114;SDS011;10218;42.874;25.320;2024-02-21T11:07:08;26.40;;;20.30;;
20114;SDS011;10218;42.874;25.320;2024-02-21T11:09:35;12.70;;;9.53;;
20114;SDS011;10218;42.874;25.320;2024-02-21T11:12:03;21.33;;;15.63;;
20114;SDS011;10218;42.874;25.320;2024-02-21T11:14:32;14.80;;;7.97;;
20114;SDS011;10218;42.874;25.320;2024-02-21T11:17:02;9.83;;;7.07;;
20114;SDS011;10218;42.874;25.320;2024-02-21T11:19:31;11.17;;;9.13;;
20114;SDS011;10218;42.874;25.320;2024-02-21T11:21:58;11.53;;;7.60;;
20114;SDS011;10218;42.874;25.320;2024-02-21T11:24:31;14.13;;;10.83;;
20114;SDS011;10218;42.874;25.320;2024-02-21T11:27:09;8.73;;;6.10;;
20114;SDS011;10218;42.874;25.320;2024-02-21T11:29:45;9.80;;;7.23;;
20114;SDS011;10218;42.874;25.320;2024-02-21T11:32:20;10.23;;;7.37;;
20114;SDS011;10218;42.874;25.320;2024-02-21T11:34:57;10.20;;;7.37;;
20114;SDS011;10218;42.874;25.320;2024-02-21T11:37:29;15.70;;;7.90;;
20114;SDS011;10218;42.874;25.320;2024-02-21T11:39:59;10.60;;;7.63;;
20114;SDS011;10218;42.874;25.320;2024-02-21T11:42:27;9.97;;;7.70;;
20114;SDS011;10218;42.874;25.320;2024-02-21T11:44:56;9.47;;;6.50;;
20114;SDS011;10218;42.874;25.320;2024-02-21T11:47:24;9.63;;;7.47;;
20114;SDS011;10218;42.874;25.320;2024-02-21T11:49:51;8.47;;;6.70;;
20114;SDS011;10218;42.874;25.320;2024-02-21T11:52:22;9.67;;;6.70;;
20114;SDS011;10218;42.874;25.320;2024-02-21T11:54:51;13.33;;;8.30;;
20114;SDS011;10218;42.874;25.320;2024-02-21T11:57:19;9.07;;;6.90;;
20114;SDS011;10218;42.874;25.320;2024-02-21T11:59:47;11.90;;;7.30;;
20114;SDS011;10218;42.874;25.320;2024-02-21T12:02:16;9.50;;;6.93;;
20114;SDS011;10218;42.874;25.320;2024-02-21T12:04:44;9.07;;;6.90;;
20114;SDS011;10218;42.874;25.320;2024-02-21T12:07:11;7.87;;;6.30;;
20114;SDS011;10218;42.874;25.320;2024-02-21T12:09:38;11.07;;;6.73;;
20114;SDS011;10218;42.874;25.320;2024-02-21T12:12:09;11.23;;;7.07;;
20114;SDS011;10218;42.874;25.320;2024-02-21T12:14:36;8.60;;;6.30;;
20114;SDS011;10218;42.874;25.320;2024-02-21T12:17:04;11.23;;;7.30;;
20114;SDS011;10218;42.874;25.320;2024-02-21T12:19:32;8.83;;;6.13;;
20114;SDS011;10218;42.874;25.320;2024-02-21T12:22:01;9.83;;;5.93;;
20114;SDS011;10218;42.874;25.320;2024-02-21T12:24:32;8.80;;;7.27;;
20114;SDS011;10218;42.874;25.320;2024-02-21T12:27:00;18.00;;;13.70;;
20114;SDS011;10218;42.874;25.320;2024-02-21T12:29:30;10.60;;;8.13;;
20114;SDS011;10218;42.874;25.320;2024-02-21T12:31:57;19.57;;;11.27;;
20114;SDS011;10218;42.874;25.320;2024-02-21T12:34:24;13.00;;;6.70;;
20114;SDS011;10218;42.874;25.320;2024-02-21T12:36:55;9.87;;;7.43;;
20114;SDS011;10218;42.874;25.320;2024-02-21T12:39:23;9.10;;;7.10;;
20114;SDS011;10218;42.874;25.320;2024-02-21T12:41:50;12.60;;;6.73;;
20114;SDS011;10218;42.874;25.320;2024-02-21T12:44:17;12.63;;;6.80;;
20114;SDS011;10218;42.874;25.320;2024-02-21T12:46:45;11.00;;;7.17;;
20114;SDS011;10218;42.874;25.320;2024-02-21T12:49:12;9.47;;;7.27;;
20114;SDS011;10218;42.874;25.320;2024-02-21T12:51:39;12.47;;;7.63;;
20114;SDS011;10218;42.874;25.320;2024-02-21T12:54:08;13.10;;;7.90;;
20114;SDS011;10218;42.874;25.320;2024-02-21T12:56:37;9.50;;;6.57;;
20114;SDS011;10218;42.874;25.320;2024-02-21T12:59:05;8.37;;;7.10;;
20114;SDS011;10218;42.874;25.320;2024-02-21T13:01:35;14.50;;;7.73;;
20114;SDS011;10218;42.874;25.320;2024-02-21T13:04:03;14.77;;;7.33;;
20114;SDS011;10218;42.874;25.320;2024-02-21T13:06:30;11.10;;;7.00;;
20114;SDS011;10218;42.874;25.320;2024-02-21T13:08:57;8.37;;;6.90;;
20114;SDS011;10218;42.874;25.320;2024-02-21T13:11:25;9.30;;;6.87;;
20114;SDS011;10218;42.874;25.320;2024-02-21T13:13:55;12.50;;;7.50;;
20114;SDS011;10218;42.874;25.320;2024-02-21T13:16:22;17.50;;;11.73;;
20114;SDS011;10218;42.874;25.320;2024-02-21T13:18:49;11.70;;;8.00;;
20114;SDS011;10218;42.874;25.320;2024-02-21T13:21:16;7.47;;;5.77;;
20114;SDS011;10218;42.874;25.320;2024-02-21T13:23:44;9.93;;;7.13;;
20114;SDS011;10218;42.874;25.320;2024-02-21T13:26:11;11.43;;;8.00;;
20114;SDS011;10218;42.874;25.320;2024-02-21T13:28:39;12.40;;;7.20;;
20114;SDS011;10218;42.874;25.320;2024-02-21T13:31:06;9.73;;;7.10;;
20114;SDS011;10218;42.874;25.320;2024-02-21T13:33:33;8.47;;;6.43;;
20114;SDS011;10218;42.874;25.320;2024-02-21T13:36:00;8.97;;;6.90;;
20114;SDS011;10218;42.874;25.320;2024-02-21T13:38:29;9.47;;;7.17;;
20114;SDS011;10218;42.874;25.320;2024-02-21T13:40:56;12.13;;;7.23;;
20114;SDS011;10218;42.874;25.320;2024-02-21T13:43:23;10.93;;;7.33;;
20114;SDS011;10218;42.874;25.320;2024-02-21T13:45:56;9.57;;;6.40;;
20114;SDS011;10218;42.874;25.320;2024-02-21T13:48:29;11.97;;;7.20;;
20114;SDS011;10218;42.874;25.320;2024-02-21T13:50:57;13.03;;;5.70;;
20114;SDS011;10218;42.874;25.320;2024-02-21T13:53:24;8.33;;;6.00;;
20114;SDS011;10218;42.874;25.320;2024-02-21T13:55:51;7.50;;;5.47;;
20114;SDS011;10218;42.874;25.320;2024-02-21T13:58:18;16.20;;;10.00;;
20114;SDS011;10218;42.874;25.320;2024-02-21T14:00:45;13.03;;;7.80;;
20114;SDS011;10218;42.874;25.320;2024-02-21T14:03:12;12.37;;;8.40;;
20114;SDS011;10218;42.874;25.320;2024-02-21T14:05:39;10.40;;;7.83;;
20114;SDS011;10218;42.874;25.320;2024-02-21T14:08:07;10.20;;;7.63;;
20114;SDS011;10218;42.874;25.320;2024-02-21T14:10:34;13.47;;;8.50;;
20114;SDS011;10218;42.874;25.320;2024-02-21T14:13:02;11.97;;;7.60;;
20114;SDS011;10218;42.874;25.320;2024-02-21T14:15:29;11.93;;;8.77;;
20114;SDS011;10218;42.874;25.320;2024-02-21T14:17:57;12.23;;;8.33;;
20114;SDS011;10218;42.874;25.320;2024-02-21T14:20:24;12.97;;;8.43;;
20114;SDS011;10218;42.874;25.320;2024-02-21T14:22:51;14.00;;;9.60;;